sensor_id;sensor_type;location;lat;lon;timestamp;P1;durP1;ratioP1;P2;durP2;ratioP2
15228;SDS011;7717;47.792;12.076;2023-08-07T00:00:50;1.07;;;0.70;;
15228;SDS011;7717;47.792;12.076;2023-08-07T00:03:15;1.23;;;0.70;;
15228;SDS011;7717;47.792;12.076;2023-08-07T00:05:47;0.27;;;0.20;;
15228;SDS011;7717;47.792;12.076;2023-08-07T00:08:12;0.60;;;0.60;;
15228;SDS011;7717;47.792;12.076;2023-08-07T00:10:38;0.70;;;0.70;;
15228;SDS011;7717;47.792;12.076;2023-08-07T00:13:03;0.30;;;0.30;;
15228;SDS011;7717;47.792;12.076;2023-08-07T00:15:28;1.10;;;0.70;;
15228;SDS011;7717;47.792;12.076;2023-08-07T00:17:54;1.50;;;0.47;;
15228;SDS011;7717;47.792;12.076;2023-08-07T00:20:19;0.60;;;0.60;;
15228;SDS011;7717;47.792;12.076;2023-08-07T00:22:44;0.40;;;0.37;;
15228;SDS011;7717;47.792;12.076;2023-08-07T00:25:09;0.47;;;0.47;;
15228;SDS011;7717;47.792;12.076;2023-08-07T00:27:35;0.70;;;0.50;;
15228;SDS011;7717;47.792;12.076;2023-08-07T00:30:00;0.77;;;0.47;;
15228;SDS011;7717;47.792;12.076;2023-08-07T00:32:26;0.67;;;0.63;;
15228;SDS011;7717;47.792;12.076;2023-08-07T00:34:51;0.50;;;0.50;;
15228;SDS011;7717;47.792;12.076;2023-08-07T00:37:16;0.30;;;0.30;;
15228;SDS011;7717;47.792;12.076;2023-08-07T00:39:42;1.50;;;0.60;;
15228;SDS011;7717;47.792;12.076;2023-08-07T00:42:07;0.50;;;0.50;;
15228;SDS011;7717;47.792;12.076;2023-08-07T00:44:33;0.20;;;0.20;;
15228;SDS011;7717;47.792;12.076;2023-08-07T00:46:58;0.50;;;0.50;;
15228;SDS011;7717;47.792;12.076;2023-08-07T00:49:23;0.60;;;0.40;;
15228;SDS011;7717;47.792;12.076;2023-08-07T00:51:48;0.50;;;0.50;;
15228;SDS011;7717;47.792;12.076;2023-08-07T00:54:14;1.00;;;0.80;;
15228;SDS011;7717;47.792;12.076;2023-08-07T00:56:40;0.10;;;0.10;;
15228;SDS011;7717;47.792;12.076;2023-08-07T00:59:05;0.43;;;0.40;;
15228;SDS011;7717;47.792;12.076;2023-08-07T01:01:31;0.63;;;0.20;;
15228;SDS011;7717;47.792;12.076;2023-08-07T01:03:57;0.30;;;0.30;;
15228;SDS011;7717;47.792;12.076;2023-08-07T01:06:22;0.17;;;0.17;;
15228;SDS011;7717;47.792;12.076;2023-08-07T01:08:47;0.10;;;0.10;;
15228;SDS011;7717;47.792;12.076;2023-08-07T01:14:00;0.33;;;0.33;;
15228;SDS011;7717;47.792;12.076;2023-08-07T01:16:37;1.13;;;0.57;;
15228;SDS011;7717;47.792;12.076;2023-08-07T01:19:06;0.10;;;0.10;;
15228;SDS011;7717;47.792;12.076;2023-08-07T01:21:33;0.20;;;0.20;;
15228;SDS011;7717;47.792;12.076;2023-08-07T01:23:59;0.30;;;0.30;;
15228;SDS011;7717;47.792;12.076;2023-08-07T01:26:24;0.30;;;0.30;;
15228;SDS011;7717;47.792;12.076;2023-08-07T01:28:57;2.20;;;0.40;;
15228;SDS011;7717;47.792;12.076;2023-08-07T01:31:25;0.10;;;0.10;;
15228;SDS011;7717;47.792;12.076;2023-08-07T01:33:59;0.20;;;0.13;;
15228;SDS011;7717;47.792;12.076;2023-08-07T01:36:26;0.30;;;0.30;;
15228;SDS011;7717;47.792;12.076;2023-08-07T01:38:52;0.40;;;0.30;;
15228;SDS011;7717;47.792;12.076;2023-08-07T01:41:18;0.63;;;0.37;;
15228;SDS011;7717;47.792;12.076;2023-08-07T01:43:43;0.27;;;0.20;;
15228;SDS011;7717;47.792;12.076;2023-08-07T01:46:09;0.40;;;0.40;;
15228;SDS011;7717;47.792;12.076;2023-08-07T01:48:35;0.20;;;0.20;;
15228;SDS011;7717;47.792;12.076;2023-08-07T01:51:00;1.07;;;0.30;;
15228;SDS011;7717;47.792;12.076;2023-08-07T01:53:26;0.40;;;0.40;;
15228;SDS011;7717;47.792;12.076;2023-08-07T01:55:51;0.50;;;0.50;;
15228;SDS011;7717;47.792;12.076;2023-08-07T01:58:16;0.33;;;0.33;;
15228;SDS011;7717;47.792;12.076;2023-08-07T02:00:42;0.30;;;0.30;;
15228;SDS011;7717;47.792;12.076;2023-08-07T02:03:08;0.73;;;0.47;;
15228;SDS011;7717;47.792;12.076;2023-08-07T02:05:33;0.20;;;0.20;;
15228;SDS011;7717;47.792;12.076;2023-08-07T02:07:59;0.23;;;0.23;;
15228;SDS011;7717;47.792;12.076;2023-08-07T02:10:24;0.30;;;0.30;;
15228;SDS011;7717;47.792;12.076;2023-08-07T02:12:50;0.30;;;0.30;;
15228;SDS011;7717;47.792;12.076;2023-08-07T02:15:15;0.73;;;0.50;;
15228;SDS011;7717;47.792;12.076;2023-08-07T02:17:40;0.40;;;0.40;;
15228;SDS011;7717;47.792;12.076;2023-08-07T02:20:06;1.07;;;0.60;;
15228;SDS011;7717;47.792;12.076;2023-08-07T02:22:32;0.20;;;0.20;;
15228;SDS011;7717;47.792;12.076;2023-08-07T02:24:57;0.23;;;0.23;;
15228;SDS011;7717;47.792;12.076;2023-08-07T02:27:22;0.50;;;0.50;;
15228;SDS011;7717;47.792;12.076;2023-08-07T02:29:48;0.30;;;0.30;;
15228;SDS011;7717;47.792;12.076;2023-08-07T02:32:13;0.33;;;0.33;;
15228;SDS011;7717;47.792;12.076;2023-08-07T02:34:38;1.40;;;0.50;;
15228;SDS011;7717;47.792;12.076;2023-08-07T02:37:03;1.03;;;0.60;;
15228;SDS011;7717;47.792;12.076;2023-08-07T02:39:29;0.90;;;0.53;;
15228;SDS011;7717;47.792;12.076;2023-08-07T02:41:54;1.03;;;0.70;;
15228;SDS011;7717;47.792;12.076;2023-08-07T02:44:19;0.70;;;0.70;;
15228;SDS011;7717;47.792;12.076;2023-08-07T02:46:45;1.10;;;0.80;;
15228;SDS011;7717;47.792;12.076;2023-08-07T02:49:11;0.87;;;0.73;;
15228;SDS011;7717;47.792;12.076;2023-08-07T02:51:36;0.73;;;0.60;;
15228;SDS011;7717;47.792;12.076;2023-08-07T02:54:01;1.03;;;0.63;;
15228;SDS011;7717;47.792;12.076;2023-08-07T02:56:26;1.10;;;1.00;;
15228;SDS011;7717;47.792;12.076;2023-08-07T02:58:52;0.77;;;0.77;;
15228;SDS011;7717;47.792;12.076;2023-08-07T03:01:17;0.63;;;0.50;;
15228;SDS011;7717;47.792;12.076;2023-08-07T03:03:42;1.27;;;1.17;;
15228;SDS011;7717;47.792;12.076;2023-08-07T03:06:08;0.70;;;0.70;;
15228;SDS011;7717;47.792;12.076;2023-08-07T03:08:33;1.47;;;0.90;;
15228;SDS011;7717;47.792;12.076;2023-08-07T03:10:58;0.53;;;0.53;;
15228;SDS011;7717;47.792;12.076;2023-08-07T03:13:24;0.63;;;0.63;;
15228;SDS011;7717;47.792;12.076;2023-08-07T03:15:49;1.30;;;1.00;;
15228;SDS011;7717;47.792;12.076;2023-08-07T03:18:18;1.70;;;0.60;;
15228;SDS011;7717;47.792;12.076;2023-08-07T03:20:43;1.80;;;0.80;;
15228;SDS011;7717;47.792;12.076;2023-08-07T03:23:09;0.63;;;0.50;;
15228;SDS011;7717;47.792;12.076;2023-08-07T03:25:34;1.30;;;0.53;;
15228;SDS011;7717;47.792;12.076;2023-08-07T03:28:00;1.10;;;1.00;;
15228;SDS011;7717;47.792;12.076;2023-08-07T03:30:25;0.80;;;0.70;;
15228;SDS011;7717;47.792;12.076;2023-08-07T03:32:50;1.07;;;0.80;;
15228;SDS011;7717;47.792;12.076;2023-08-07T03:35:21;2.43;;;0.83;;
15228;SDS011;7717;47.792;12.076;2023-08-07T03:37:46;1.73;;;0.70;;
15228;SDS011;7717;47.792;12.076;2023-08-07T03:40:12;0.70;;;0.63;;
15228;SDS011;7717;47.792;12.076;2023-08-07T03:42:37;1.67;;;1.00;;
15228;SDS011;7717;47.792;12.076;2023-08-07T03:45:02;1.13;;;0.70;;
15228;SDS011;7717;47.792;12.076;2023-08-07T03:47:28;3.63;;;1.23;;
15228;SDS011;7717;47.792;12.076;2023-08-07T03:49:56;1.10;;;1.03;;
15228;SDS011;7717;47.792;12.076;2023-08-07T03:52:21;0.40;;;0.40;;
15228;SDS011;7717;47.792;12.076;2023-08-07T03:54:46;1.13;;;0.73;;
15228;SDS011;7717;47.792;12.076;2023-08-07T03:57:11;1.03;;;0.90;;
15228;SDS011;7717;47.792;12.076;2023-08-07T03:59:37;3.00;;;0.90;;
15228;SDS011;7717;47.792;12.076;2023-08-07T04:02:02;0.83;;;0.70;;
15228;SDS011;7717;47.792;12.076;2023-08-07T04:04:27;2.03;;;1.10;;
15228;SDS011;7717;47.792;12.076;2023-08-07T04:06:52;2.90;;;0.80;;
15228;SDS011;7717;47.792;12.076;2023-08-07T04:09:18;1.87;;;0.63;;
15228;SDS011;7717;47.792;12.076;2023-08-07T04:11:43;1.57;;;1.00;;
15228;SDS011;7717;47.792;12.076;2023-08-07T04:14:08;3.57;;;0.90;;
15228;SDS011;7717;47.792;12.076;2023-08-07T04:16:33;1.07;;;0.90;;
15228;SDS011;7717;47.792;12.076;2023-08-07T04:18:59;1.37;;;0.80;;
15228;SDS011;7717;47.792;12.076;2023-08-07T04:21:24;1.13;;;0.90;;
15228;SDS011;7717;47.792;12.076;2023-08-07T04:23:50;1.10;;;1.00;;
15228;SDS011;7717;47.792;12.076;2023-08-07T04:26:15;0.93;;;0.70;;
15228;SDS011;7717;47.792;12.076;2023-08-07T04:28:40;0.93;;;0.80;;
15228;SDS011;7717;47.792;12.076;2023-08-07T04:31:06;0.67;;;0.50;;
15228;SDS011;7717;47.792;12.076;2023-08-07T04:33:31;1.13;;;1.10;;
15228;SDS011;7717;47.792;12.076;2023-08-07T04:35:56;1.17;;;1.07;;
15228;SDS011;7717;47.792;12.076;2023-08-07T04:38:22;1.37;;;0.80;;
15228;SDS011;7717;47.792;12.076;2023-08-07T04:40:48;2.30;;;1.20;;
15228;SDS011;7717;47.792;12.076;2023-08-07T04:43:14;2.00;;;1.07;;
15228;SDS011;7717;47.792;12.076;2023-08-07T04:45:40;1.07;;;1.00;;
15228;SDS011;7717;47.792;12.076;2023-08-07T04:48:06;0.40;;;0.40;;
15228;SDS011;7717;47.792;12.076;2023-08-07T04:50:32;2.17;;;1.13;;
15228;SDS011;7717;47.792;12.076;2023-08-07T04:52:57;1.20;;;1.00;;
15228;SDS011;7717;47.792;12.076;2023-08-07T04:55:22;1.23;;;1.13;;
15228;SDS011;7717;47.792;12.076;2023-08-07T04:57:47;1.03;;;0.70;;
15228;SDS011;7717;47.792;12.076;2023-08-07T05:00:13;2.97;;;1.40;;
15228;SDS011;7717;47.792;12.076;2023-08-07T05:02:38;1.37;;;1.00;;
15228;SDS011;7717;47.792;12.076;2023-08-07T05:05:06;3.07;;;1.17;;
15228;SDS011;7717;47.792;12.076;2023-08-07T05:07:34;1.63;;;0.80;;
15228;SDS011;7717;47.792;12.076;2023-08-07T05:10:01;1.37;;;1.27;;
15228;SDS011;7717;47.792;12.076;2023-08-07T05:12:28;1.47;;;1.07;;
15228;SDS011;7717;47.792;12.076;2023-08-07T05:14:54;1.23;;;1.00;;
15228;SDS011;7717;47.792;12.076;2023-08-07T05:17:19;2.90;;;1.20;;
15228;SDS011;7717;47.792;12.076;2023-08-07T05:19:44;2.13;;;1.10;;
15228;SDS011;7717;47.792;12.076;2023-08-07T05:22:09;0.87;;;0.87;;
15228;SDS011;7717;47.792;12.076;2023-08-07T05:24:34;0.90;;;0.90;;
15228;SDS011;7717;47.792;12.076;2023-08-07T05:27:04;0.50;;;0.50;;
15228;SDS011;7717;47.792;12.076;2023-08-07T05:29:30;0.80;;;0.57;;
15228;SDS011;7717;47.792;12.076;2023-08-07T05:31:55;3.07;;;1.20;;
15228;SDS011;7717;47.792;12.076;2023-08-07T05:34:20;1.20;;;1.10;;
15228;SDS011;7717;47.792;12.076;2023-08-07T05:36:45;2.27;;;1.50;;
15228;SDS011;7717;47.792;12.076;2023-08-07T05:39:11;1.07;;;1.00;;
15228;SDS011;7717;47.792;12.076;2023-08-07T05:41:36;0.83;;;0.83;;
15228;SDS011;7717;47.792;12.076;2023-08-07T05:44:03;0.57;;;0.57;;
15228;SDS011;7717;47.792;12.076;2023-08-07T05:46:28;0.80;;;0.80;;
15228;SDS011;7717;47.792;12.076;2023-08-07T05:48:53;1.03;;;0.63;;
15228;SDS011;7717;47.792;12.076;2023-08-07T05:51:19;0.93;;;0.93;;
15228;SDS011;7717;47.792;12.076;2023-08-07T05:53:44;0.80;;;0.80;;
15228;SDS011;7717;47.792;12.076;2023-08-07T05:56:09;2.03;;;1.00;;
15228;SDS011;7717;47.792;12.076;2023-08-07T05:58:35;1.83;;;1.10;;
15228;SDS011;7717;47.792;12.076;2023-08-07T06:01:00;2.83;;;1.07;;
15228;SDS011;7717;47.792;12.076;2023-08-07T06:03:25;1.37;;;1.10;;
15228;SDS011;7717;47.792;12.076;2023-08-07T06:05:50;1.47;;;1.10;;
15228;SDS011;7717;47.792;12.076;2023-08-07T06:08:15;2.17;;;1.70;;
15228;SDS011;7717;47.792;12.076;2023-08-07T06:10:41;1.87;;;1.40;;
15228;SDS011;7717;47.792;12.076;2023-08-07T06:13:06;1.40;;;1.30;;
15228;SDS011;7717;47.792;12.076;2023-08-07T06:15:33;2.77;;;1.00;;
15228;SDS011;7717;47.792;12.076;2023-08-07T06:17:58;1.03;;;0.90;;
15228;SDS011;7717;47.792;12.076;2023-08-07T06:20:24;0.80;;;0.80;;
15228;SDS011;7717;47.792;12.076;2023-08-07T06:22:49;2.03;;;0.87;;
15228;SDS011;7717;47.792;12.076;2023-08-07T06:25:14;1.57;;;0.97;;
15228;SDS011;7717;47.792;12.076;2023-08-07T06:27:39;1.23;;;1.10;;
15228;SDS011;7717;47.792;12.076;2023-08-07T06:30:05;3.07;;;1.10;;
15228;SDS011;7717;47.792;12.076;2023-08-07T06:32:31;0.40;;;0.40;;
15228;SDS011;7717;47.792;12.076;2023-08-07T06:34:56;2.87;;;1.10;;
15228;SDS011;7717;47.792;12.076;2023-08-07T06:37:21;0.50;;;0.50;;
15228;SDS011;7717;47.792;12.076;2023-08-07T06:39:47;1.00;;;0.90;;
15228;SDS011;7717;47.792;12.076;2023-08-07T06:42:12;1.73;;;0.93;;
15228;SDS011;7717;47.792;12.076;2023-08-07T06:44:38;1.00;;;0.90;;
15228;SDS011;7717;47.792;12.076;2023-08-07T06:47:03;1.77;;;1.00;;
15228;SDS011;7717;47.792;12.076;2023-08-07T06:49:28;2.10;;;1.33;;
15228;SDS011;7717;47.792;12.076;2023-08-07T06:51:56;1.77;;;0.80;;
15228;SDS011;7717;47.792;12.076;2023-08-07T06:54:24;0.70;;;0.70;;
15228;SDS011;7717;47.792;12.076;2023-08-07T06:56:50;1.47;;;0.83;;
15228;SDS011;7717;47.792;12.076;2023-08-07T06:59:15;0.93;;;0.83;;
15228;SDS011;7717;47.792;12.076;2023-08-07T07:01:40;0.97;;;0.60;;
15228;SDS011;7717;47.792;12.076;2023-08-07T07:04:05;2.20;;;1.00;;
15228;SDS011;7717;47.792;12.076;2023-08-07T07:06:31;1.03;;;0.90;;
15228;SDS011;7717;47.792;12.076;2023-08-07T07:08:56;0.63;;;0.63;;
15228;SDS011;7717;47.792;12.076;2023-08-07T07:11:22;1.27;;;0.70;;
15228;SDS011;7717;47.792;12.076;2023-08-07T07:13:50;0.70;;;0.70;;
15228;SDS011;7717;47.792;12.076;2023-08-07T07:16:19;0.50;;;0.50;;
15228;SDS011;7717;47.792;12.076;2023-08-07T07:18:46;2.73;;;0.83;;
15228;SDS011;7717;47.792;12.076;2023-08-07T07:21:12;2.00;;;1.03;;
15228;SDS011;7717;47.792;12.076;2023-08-07T07:23:37;1.47;;;0.80;;
15228;SDS011;7717;47.792;12.076;2023-08-07T07:26:02;2.33;;;0.90;;
15228;SDS011;7717;47.792;12.076;2023-08-07T07:28:28;0.67;;;0.50;;
15228;SDS011;7717;47.792;12.076;2023-08-07T07:30:53;3.77;;;1.03;;
15228;SDS011;7717;47.792;12.076;2023-08-07T07:33:18;2.87;;;1.40;;
15228;SDS011;7717;47.792;12.076;2023-08-07T07:35:43;3.40;;;0.93;;
15228;SDS011;7717;47.792;12.076;2023-08-07T07:38:09;1.13;;;1.00;;
15228;SDS011;7717;47.792;12.076;2023-08-07T07:40:35;1.03;;;0.90;;
15228;SDS011;7717;47.792;12.076;2023-08-07T07:43:00;1.70;;;0.80;;
15228;SDS011;7717;47.792;12.076;2023-08-07T07:45:26;1.40;;;1.07;;
15228;SDS011;7717;47.792;12.076;2023-08-07T07:47:51;1.17;;;0.80;;
15228;SDS011;7717;47.792;12.076;2023-08-07T07:50:19;1.00;;;0.90;;
15228;SDS011;7717;47.792;12.076;2023-08-07T07:52:44;0.90;;;0.73;;
15228;SDS011;7717;47.792;12.076;2023-08-07T07:55:10;1.37;;;0.90;;
15228;SDS011;7717;47.792;12.076;2023-08-07T07:57:37;0.80;;;0.70;;
15228;SDS011;7717;47.792;12.076;2023-08-07T08:00:02;0.90;;;0.77;;
15228;SDS011;7717;47.792;12.076;2023-08-07T08:02:29;2.70;;;1.07;;
15228;SDS011;7717;47.792;12.076;2023-08-07T08:04:55;0.60;;;0.60;;
15228;SDS011;7717;47.792;12.076;2023-08-07T08:07:21;2.00;;;0.70;;
15228;SDS011;7717;47.792;12.076;2023-08-07T08:09:46;0.60;;;0.60;;
15228;SDS011;7717;47.792;12.076;2023-08-07T08:12:12;1.67;;;0.90;;
15228;SDS011;7717;47.792;12.076;2023-08-07T08:14:37;2.53;;;1.00;;
15228;SDS011;7717;47.792;12.076;2023-08-07T08:17:02;0.60;;;0.60;;
15228;SDS011;7717;47.792;12.076;2023-08-07T08:19:28;1.00;;;0.63;;
15228;SDS011;7717;47.792;12.076;2023-08-07T08:21:53;2.30;;;0.90;;
15228;SDS011;7717;47.792;12.076;2023-08-07T08:24:19;0.90;;;0.83;;
15228;SDS011;7717;47.792;12.076;2023-08-07T08:26:44;1.43;;;0.90;;
15228;SDS011;7717;47.792;12.076;2023-08-07T08:29:09;1.17;;;0.70;;
15228;SDS011;7717;47.792;12.076;2023-08-07T08:31:35;0.90;;;0.80;;
15228;SDS011;7717;47.792;12.076;2023-08-07T08:34:00;0.67;;;0.67;;
15228;SDS011;7717;47.792;12.076;2023-08-07T08:36:25;1.87;;;0.90;;
15228;SDS011;7717;47.792;12.076;2023-08-07T08:38:51;1.27;;;0.77;;
15228;SDS011;7717;47.792;12.076;2023-08-07T08:41:17;1.13;;;1.00;;
15228;SDS011;7717;47.792;12.076;2023-08-07T08:43:43;0.83;;;0.70;;
15228;SDS011;7717;47.792;12.076;2023-08-07T08:46:10;1.10;;;1.10;;
15228;SDS011;7717;47.792;12.076;2023-08-07T08:48:36;1.30;;;1.00;;
15228;SDS011;7717;47.792;12.076;2023-08-07T08:51:03;0.73;;;0.73;;
15228;SDS011;7717;47.792;12.076;2023-08-07T08:53:29;3.07;;;0.70;;
15228;SDS011;7717;47.792;12.076;2023-08-07T08:55:55;1.30;;;1.20;;
15228;SDS011;7717;47.792;12.076;2023-08-07T08:58:21;1.87;;;1.10;;
15228;SDS011;7717;47.792;12.076;2023-08-07T09:00:48;0.90;;;0.90;;
15228;SDS011;7717;47.792;12.076;2023-08-07T09:03:13;1.20;;;0.70;;
15228;SDS011;7717;47.792;12.076;2023-08-07T09:05:38;0.57;;;0.57;;
15228;SDS011;7717;47.792;12.076;2023-08-07T09:08:04;1.60;;;0.80;;
15228;SDS011;7717;47.792;12.076;2023-08-07T09:10:30;0.63;;;0.63;;
15228;SDS011;7717;47.792;12.076;2023-08-07T09:13:00;1.00;;;0.90;;
15228;SDS011;7717;47.792;12.076;2023-08-07T09:15:25;2.30;;;1.00;;
15228;SDS011;7717;47.792;12.076;2023-08-07T09:17:53;1.53;;;1.07;;
15228;SDS011;7717;47.792;12.076;2023-08-07T09:20:19;0.90;;;0.90;;
15228;SDS011;7717;47.792;12.076;2023-08-07T09:22:45;3.50;;;1.40;;
15228;SDS011;7717;47.792;12.076;2023-08-07T09:25:10;0.80;;;0.73;;
15228;SDS011;7717;47.792;12.076;2023-08-07T09:27:38;0.70;;;0.70;;
15228;SDS011;7717;47.792;12.076;2023-08-07T09:30:07;2.80;;;1.10;;
15228;SDS011;7717;47.792;12.076;2023-08-07T09:32:34;0.83;;;0.83;;
15228;SDS011;7717;47.792;12.076;2023-08-07T09:35:01;1.47;;;0.97;;
15228;SDS011;7717;47.792;12.076;2023-08-07T09:37:26;1.13;;;1.00;;
15228;SDS011;7717;47.792;12.076;2023-08-07T09:39:52;0.97;;;0.80;;
15228;SDS011;7717;47.792;12.076;2023-08-07T09:42:17;0.97;;;0.90;;
15228;SDS011;7717;47.792;12.076;2023-08-07T09:44:43;1.03;;;0.83;;
15228;SDS011;7717;47.792;12.076;2023-08-07T09:47:16;1.43;;;0.90;;
15228;SDS011;7717;47.792;12.076;2023-08-07T09:49:42;1.30;;;0.93;;
15228;SDS011;7717;47.792;12.076;2023-08-07T09:52:08;2.77;;;1.30;;
15228;SDS011;7717;47.792;12.076;2023-08-07T09:54:34;1.37;;;0.93;;
15228;SDS011;7717;47.792;12.076;2023-08-07T09:56:59;1.30;;;0.80;;
15228;SDS011;7717;47.792;12.076;2023-08-07T09:59:29;1.10;;;0.97;;
15228;SDS011;7717;47.792;12.076;2023-08-07T10:01:54;2.37;;;1.17;;
15228;SDS011;7717;47.792;12.076;2023-08-07T10:04:21;2.90;;;1.00;;
15228;SDS011;7717;47.792;12.076;2023-08-07T10:06:46;2.70;;;0.93;;
15228;SDS011;7717;47.792;12.076;2023-08-07T10:09:11;1.23;;;0.77;;
15228;SDS011;7717;47.792;12.076;2023-08-07T10:11:38;1.27;;;1.10;;
15228;SDS011;7717;47.792;12.076;2023-08-07T10:14:03;1.47;;;1.03;;
15228;SDS011;7717;47.792;12.076;2023-08-07T10:16:29;1.47;;;0.80;;
15228;SDS011;7717;47.792;12.076;2023-08-07T10:18:55;0.67;;;0.67;;
15228;SDS011;7717;47.792;12.076;2023-08-07T10:21:21;2.27;;;0.73;;
15228;SDS011;7717;47.792;12.076;2023-08-07T10:23:46;1.00;;;0.90;;
15228;SDS011;7717;47.792;12.076;2023-08-07T10:26:13;0.90;;;0.70;;
15228;SDS011;7717;47.792;12.076;2023-08-07T10:28:39;1.13;;;0.90;;
15228;SDS011;7717;47.792;12.076;2023-08-07T10:31:08;0.70;;;0.70;;
15228;SDS011;7717;47.792;12.076;2023-08-07T10:33:34;0.83;;;0.83;;
15228;SDS011;7717;47.792;12.076;2023-08-07T10:35:59;0.80;;;0.80;;
15228;SDS011;7717;47.792;12.076;2023-08-07T10:38:25;1.33;;;1.17;;
15228;SDS011;7717;47.792;12.076;2023-08-07T10:43:45;1.53;;;1.03;;
15228;SDS011;7717;47.792;12.076;2023-08-07T10:46:14;1.17;;;0.90;;
15228;SDS011;7717;47.792;12.076;2023-08-07T10:48:40;1.13;;;0.77;;
15228;SDS011;7717;47.792;12.076;2023-08-07T10:51:06;1.13;;;0.67;;
15228;SDS011;7717;47.792;12.076;2023-08-07T10:53:32;1.73;;;0.90;;
15228;SDS011;7717;47.792;12.076;2023-08-07T10:56:00;1.00;;;0.90;;
15228;SDS011;7717;47.792;12.076;2023-08-07T10:58:26;1.37;;;1.17;;
15228;SDS011;7717;47.792;12.076;2023-08-07T11:03:39;1.97;;;0.90;;
15228;SDS011;7717;47.792;12.076;2023-08-07T11:06:05;2.37;;;1.20;;
15228;SDS011;7717;47.792;12.076;2023-08-07T11:08:30;1.40;;;1.10;;
15228;SDS011;7717;47.792;12.076;2023-08-07T11:10:56;0.90;;;0.90;;
15228;SDS011;7717;47.792;12.076;2023-08-07T11:13:22;1.87;;;0.80;;
15228;SDS011;7717;47.792;12.076;2023-08-07T11:15:48;1.53;;;1.10;;
15228;SDS011;7717;47.792;12.076;2023-08-07T11:18:14;0.80;;;0.80;;
15228;SDS011;7717;47.792;12.076;2023-08-07T11:20:41;1.10;;;0.93;;
15228;SDS011;7717;47.792;12.076;2023-08-07T11:23:07;1.47;;;0.90;;
15228;SDS011;7717;47.792;12.076;2023-08-07T11:25:35;0.90;;;0.90;;
15228;SDS011;7717;47.792;12.076;2023-08-07T11:28:00;1.90;;;0.97;;
15228;SDS011;7717;47.792;12.076;2023-08-07T11:30:25;1.00;;;0.80;;
15228;SDS011;7717;47.792;12.076;2023-08-07T11:32:51;0.60;;;0.60;;
15228;SDS011;7717;47.792;12.076;2023-08-07T11:35:16;0.80;;;0.80;;
15228;SDS011;7717;47.792;12.076;2023-08-07T11:37:46;0.73;;;0.70;;
15228;SDS011;7717;47.792;12.076;2023-08-07T11:40:14;1.63;;;0.93;;
15228;SDS011;7717;47.792;12.076;2023-08-07T11:42:42;1.00;;;0.90;;
15228;SDS011;7717;47.792;12.076;2023-08-07T11:45:08;1.07;;;1.00;;
15228;SDS011;7717;47.792;12.076;2023-08-07T11:47:33;1.13;;;0.83;;
15228;SDS011;7717;47.792;12.076;2023-08-07T11:49:59;0.87;;;0.73;;
15228;SDS011;7717;47.792;12.076;2023-08-07T11:52:24;0.90;;;0.90;;
15228;SDS011;7717;47.792;12.076;2023-08-07T11:54:50;0.90;;;0.60;;
15228;SDS011;7717;47.792;12.076;2023-08-07T11:57:19;0.60;;;0.60;;
15228;SDS011;7717;47.792;12.076;2023-08-07T11:59:49;0.73;;;0.73;;
15228;SDS011;7717;47.792;12.076;2023-08-07T12:02:14;1.13;;;0.50;;
15228;SDS011;7717;47.792;12.076;2023-08-07T12:04:40;0.97;;;0.60;;
15228;SDS011;7717;47.792;12.076;2023-08-07T12:07:05;0.70;;;0.60;;
15228;SDS011;7717;47.792;12.076;2023-08-07T12:09:30;0.40;;;0.40;;
15228;SDS011;7717;47.792;12.076;2023-08-07T12:11:58;0.40;;;0.40;;
15228;SDS011;7717;47.792;12.076;2023-08-07T12:14:27;0.50;;;0.50;;
15228;SDS011;7717;47.792;12.076;2023-08-07T12:16:54;0.93;;;0.50;;
15228;SDS011;7717;47.792;12.076;2023-08-07T12:19:19;1.13;;;0.50;;
15228;SDS011;7717;47.792;12.076;2023-08-07T12:21:44;0.30;;;0.30;;
15228;SDS011;7717;47.792;12.076;2023-08-07T12:24:10;0.40;;;0.30;;
15228;SDS011;7717;47.792;12.076;2023-08-07T12:26:36;0.43;;;0.43;;
15228;SDS011;7717;47.792;12.076;2023-08-07T12:29:01;1.30;;;0.57;;
15228;SDS011;7717;47.792;12.076;2023-08-07T12:31:26;0.40;;;0.40;;
15228;SDS011;7717;47.792;12.076;2023-08-07T12:33:51;1.10;;;0.57;;
15228;SDS011;7717;47.792;12.076;2023-08-07T12:36:17;2.00;;;0.33;;
15228;SDS011;7717;47.792;12.076;2023-08-07T12:38:42;0.83;;;0.33;;
15228;SDS011;7717;47.792;12.076;2023-08-07T12:41:07;0.80;;;0.47;;
15228;SDS011;7717;47.792;12.076;2023-08-07T12:43:32;1.33;;;0.20;;
15228;SDS011;7717;47.792;12.076;2023-08-07T12:45:58;0.30;;;0.30;;
15228;SDS011;7717;47.792;12.076;2023-08-07T12:48:24;0.30;;;0.30;;
15228;SDS011;7717;47.792;12.076;2023-08-07T12:50:51;0.63;;;0.40;;
15228;SDS011;7717;47.792;12.076;2023-08-07T12:53:16;0.67;;;0.37;;
15228;SDS011;7717;47.792;12.076;2023-08-07T12:55:44;0.30;;;0.23;;
15228;SDS011;7717;47.792;12.076;2023-08-07T12:58:10;0.30;;;0.30;;
15228;SDS011;7717;47.792;12.076;2023-08-07T13:00:35;0.47;;;0.37;;
15228;SDS011;7717;47.792;12.076;2023-08-07T13:03:01;0.43;;;0.40;;
15228;SDS011;7717;47.792;12.076;2023-08-07T13:05:27;1.17;;;0.50;;
15228;SDS011;7717;47.792;12.076;2023-08-07T13:07:53;0.73;;;0.30;;
15228;SDS011;7717;47.792;12.076;2023-08-07T13:10:23;0.83;;;0.60;;
15228;SDS011;7717;47.792;12.076;2023-08-07T13:12:48;1.50;;;0.43;;
15228;SDS011;7717;47.792;12.076;2023-08-07T13:15:15;0.30;;;0.30;;
15228;SDS011;7717;47.792;12.076;2023-08-07T13:17:41;0.47;;;0.40;;
15228;SDS011;7717;47.792;12.076;2023-08-07T13:20:06;0.17;;;0.17;;
15228;SDS011;7717;47.792;12.076;2023-08-07T13:22:43;0.23;;;0.23;;
15228;SDS011;7717;47.792;12.076;2023-08-07T13:25:09;0.40;;;0.40;;
15228;SDS011;7717;47.792;12.076;2023-08-07T13:27:35;0.50;;;0.38;;
15228;SDS011;7717;47.792;12.076;2023-08-07T13:30:00;0.57;;;0.57;;
15228;SDS011;7717;47.792;12.076;2023-08-07T13:32:26;0.65;;;0.60;;
15228;SDS011;7717;47.792;12.076;2023-08-07T13:34:52;0.28;;;0.22;;
15228;SDS011;7717;47.792;12.076;2023-08-07T13:37:17;0.90;;;0.60;;
15228;SDS011;7717;47.792;12.076;2023-08-07T13:39:42;0.40;;;0.40;;
15228;SDS011;7717;47.792;12.076;2023-08-07T13:42:08;0.70;;;0.70;;
15228;SDS011;7717;47.792;12.076;2023-08-07T13:44:35;0.67;;;0.50;;
15228;SDS011;7717;47.792;12.076;2023-08-07T13:47:00;1.40;;;0.43;;
15228;SDS011;7717;47.792;12.076;2023-08-07T13:49:26;0.40;;;0.40;;
15228;SDS011;7717;47.792;12.076;2023-08-07T13:51:52;0.67;;;0.60;;
15228;SDS011;7717;47.792;12.076;2023-08-07T13:54:17;1.33;;;0.60;;
15228;SDS011;7717;47.792;12.076;2023-08-07T13:56:42;0.50;;;0.50;;
15228;SDS011;7717;47.792;12.076;2023-08-07T13:59:07;0.53;;;0.50;;
15228;SDS011;7717;47.792;12.076;2023-08-07T14:01:34;1.53;;;0.53;;
15228;SDS011;7717;47.792;12.076;2023-08-07T14:04:00;0.63;;;0.63;;
15228;SDS011;7717;47.792;12.076;2023-08-07T14:06:26;0.67;;;0.53;;
15228;SDS011;7717;47.792;12.076;2023-08-07T14:08:51;0.70;;;0.60;;
15228;SDS011;7717;47.792;12.076;2023-08-07T14:11:17;2.20;;;0.70;;
15228;SDS011;7717;47.792;12.076;2023-08-07T14:13:42;0.57;;;0.57;;
15228;SDS011;7717;47.792;12.076;2023-08-07T14:16:09;0.50;;;0.50;;
15228;SDS011;7717;47.792;12.076;2023-08-07T14:18:34;0.73;;;0.43;;
15228;SDS011;7717;47.792;12.076;2023-08-07T14:20:59;0.87;;;0.40;;
15228;SDS011;7717;47.792;12.076;2023-08-07T14:23:24;1.40;;;1.00;;
15228;SDS011;7717;47.792;12.076;2023-08-07T14:25:50;0.70;;;0.70;;
15228;SDS011;7717;47.792;12.076;2023-08-07T14:28:17;1.43;;;1.00;;
15228;SDS011;7717;47.792;12.076;2023-08-07T14:30:43;2.50;;;0.80;;
15228;SDS011;7717;47.792;12.076;2023-08-07T14:33:08;0.67;;;0.63;;
15228;SDS011;7717;47.792;12.076;2023-08-07T14:35:33;1.40;;;0.73;;
15228;SDS011;7717;47.792;12.076;2023-08-07T14:37:58;0.77;;;0.77;;
15228;SDS011;7717;47.792;12.076;2023-08-07T14:40:24;1.33;;;0.60;;
15228;SDS011;7717;47.792;12.076;2023-08-07T14:42:49;0.50;;;0.50;;
15228;SDS011;7717;47.792;12.076;2023-08-07T14:45:14;0.70;;;0.60;;
15228;SDS011;7717;47.792;12.076;2023-08-07T14:47:40;0.73;;;0.70;;